sensor_id;sensor_type;location;lat;lon;timestamp;P1;durP1;ratioP1;P2;durP2;ratioP2
39864;SDS011;25538;48.392;9.976;2022-12-15T00:01:39;28.05;;;23.73;;
39864;SDS011;25538;48.392;9.976;2022-12-15T00:04:23;28.52;;;23.67;;
39864;SDS011;25538;48.392;9.976;2022-12-15T00:07:08;30.55;;;24.45;;
39864;SDS011;25538;48.392;9.976;2022-12-15T00:09:52;28.10;;;23.10;;
39864;SDS011;25538;48.392;9.976;2022-12-15T00:12:36;31.60;;;24.00;;
39864;SDS011;25538;48.392;9.976;2022-12-15T00:15:21;29.00;;;23.63;;
39864;SDS011;25538;48.392;9.976;2022-12-15T00:18:05;27.75;;;22.65;;
39864;SDS011;25538;48.392;9.976;2022-12-15T00:20:50;29.20;;;22.65;;
39864;SDS011;25538;48.392;9.976;2022-12-15T00:23:34;26.73;;;21.02;;
39864;SDS011;25538;48.392;9.976;2022-12-15T00:26:19;23.38;;;20.50;;
39864;SDS011;25538;48.392;9.976;2022-12-15T00:29:03;25.13;;;21.65;;
39864;SDS011;25538;48.392;9.976;2022-12-15T00:31:47;26.75;;;21.17;;
39864;SDS011;25538;48.392;9.976;2022-12-15T00:34:32;28.95;;;20.98;;
39864;SDS011;25538;48.392;9.976;2022-12-15T00:37:16;29.88;;;23.20;;
39864;SDS011;25538;48.392;9.976;2022-12-15T00:40:00;27.83;;;20.42;;
39864;SDS011;25538;48.392;9.976;2022-12-15T00:42:29;27.58;;;22.70;;
39864;SDS011;25538;48.392;9.976;2022-12-15T00:47:27;25.40;;;20.92;;
39864;SDS011;25538;48.392;9.976;2022-12-15T00:49:53;29.17;;;23.00;;
39864;SDS011;25538;48.392;9.976;2022-12-15T00:52:37;26.77;;;22.33;;
39864;SDS011;25538;48.392;9.976;2022-12-15T00:55:21;25.52;;;21.38;;
39864;SDS011;25538;48.392;9.976;2022-12-15T00:58:06;26.40;;;22.13;;
39864;SDS011;25538;48.392;9.976;2022-12-15T01:00:50;27.38;;;23.52;;
39864;SDS011;25538;48.392;9.976;2022-12-15T01:03:34;27.88;;;22.60;;
39864;SDS011;25538;48.392;9.976;2022-12-15T01:06:19;27.55;;;22.90;;
39864;SDS011;25538;48.392;9.976;2022-12-15T01:09:05;26.08;;;21.58;;
39864;SDS011;25538;48.392;9.976;2022-12-15T01:11:50;31.02;;;24.58;;
39864;SDS011;25538;48.392;9.976;2022-12-15T01:14:35;29.65;;;22.98;;
39864;SDS011;25538;48.392;9.976;2022-12-15T01:17:19;32.15;;;22.80;;
39864;SDS011;25538;48.392;9.976;2022-12-15T01:20:04;27.92;;;22.50;;
39864;SDS011;25538;48.392;9.976;2022-12-15T01:22:47;30.52;;;24.65;;
39864;SDS011;25538;48.392;9.976;2022-12-15T01:25:13;30.52;;;22.85;;
39864;SDS011;25538;48.392;9.976;2022-12-15T01:27:40;25.00;;;21.83;;
39864;SDS011;25538;48.392;9.976;2022-12-15T01:30:06;29.52;;;23.55;;
39864;SDS011;25538;48.392;9.976;2022-12-15T01:32:33;26.98;;;22.20;;
39864;SDS011;25538;48.392;9.976;2022-12-15T01:34:59;28.95;;;23.10;;
39864;SDS011;25538;48.392;9.976;2022-12-15T01:37:25;26.67;;;22.50;;
39864;SDS011;25538;48.392;9.976;2022-12-15T01:39:51;28.20;;;21.90;;
39864;SDS011;25538;48.392;9.976;2022-12-15T01:42:35;26.70;;;22.50;;
39864;SDS011;25538;48.392;9.976;2022-12-15T01:47:49;29.65;;;22.80;;
39864;SDS011;25538;48.392;9.976;2022-12-15T01:50:16;26.05;;;22.25;;
39864;SDS011;25538;48.392;9.976;2022-12-15T01:52:42;23.98;;;20.65;;
39864;SDS011;25538;48.392;9.976;2022-12-15T01:55:08;27.67;;;21.85;;
39864;SDS011;25538;48.392;9.976;2022-12-15T01:57:35;25.50;;;21.65;;
39864;SDS011;25538;48.392;9.976;2022-12-15T02:00:04;24.88;;;22.23;;
39864;SDS011;25538;48.392;9.976;2022-12-15T02:02:31;24.15;;;19.75;;
39864;SDS011;25538;48.392;9.976;2022-12-15T02:04:59;25.25;;;20.77;;
39864;SDS011;25538;48.392;9.976;2022-12-15T02:07:26;25.20;;;21.27;;
39864;SDS011;25538;48.392;9.976;2022-12-15T02:09:53;23.98;;;21.02;;
39864;SDS011;25538;48.392;9.976;2022-12-15T02:34:35;28.08;;;23.45;;
39864;SDS011;25538;48.392;9.976;2022-12-15T02:39:42;26.27;;;22.13;;
39864;SDS011;25538;48.392;9.976;2022-12-15T02:42:11;24.60;;;21.73;;
39864;SDS011;25538;48.392;9.976;2022-12-15T02:44:47;27.45;;;21.38;;
39864;SDS011;25538;48.392;9.976;2022-12-15T02:58:33;30.60;;;22.27;;
39864;SDS011;25538;48.392;9.976;2022-12-15T03:01:23;29.70;;;22.15;;
39864;SDS011;25538;48.392;9.976;2022-12-15T03:04:05;28.73;;;22.25;;
39864;SDS011;25538;48.392;9.976;2022-12-15T03:06:33;25.33;;;20.67;;
39864;SDS011;25538;48.392;9.976;2022-12-15T03:08:59;33.00;;;22.45;;
39864;SDS011;25538;48.392;9.976;2022-12-15T03:11:25;28.17;;;21.93;;
39864;SDS011;25538;48.392;9.976;2022-12-15T03:13:52;27.52;;;22.23;;
39864;SDS011;25538;48.392;9.976;2022-12-15T03:16:18;27.50;;;22.02;;
39864;SDS011;25538;48.392;9.976;2022-12-15T03:18:44;29.77;;;23.60;;
39864;SDS011;25538;48.392;9.976;2022-12-15T03:21:11;26.95;;;21.58;;
39864;SDS011;25538;48.392;9.976;2022-12-15T03:23:37;26.73;;;22.00;;
39864;SDS011;25538;48.392;9.976;2022-12-15T03:26:03;26.63;;;21.67;;
39864;SDS011;25538;48.392;9.976;2022-12-15T03:28:31;31.13;;;23.02;;
39864;SDS011;25538;48.392;9.976;2022-12-15T03:30:57;26.25;;;21.83;;
39864;SDS011;25538;48.392;9.976;2022-12-15T03:33:23;26.83;;;22.27;;
39864;SDS011;25538;48.392;9.976;2022-12-15T03:35:49;24.70;;;20.95;;
39864;SDS011;25538;48.392;9.976;2022-12-15T03:38:16;30.00;;;23.40;;
39864;SDS011;25538;48.392;9.976;2022-12-15T03:40:42;29.50;;;23.42;;
39864;SDS011;25538;48.392;9.976;2022-12-15T03:43:08;24.27;;;20.90;;
39864;SDS011;25538;48.392;9.976;2022-12-15T03:45:34;27.80;;;22.00;;
39864;SDS011;25538;48.392;9.976;2022-12-15T03:48:00;28.80;;;23.10;;
39864;SDS011;25538;48.392;9.976;2022-12-15T03:50:27;31.23;;;24.95;;
39864;SDS011;25538;48.392;9.976;2022-12-15T03:52:57;35.38;;;24.83;;
39864;SDS011;25538;48.392;9.976;2022-12-15T03:55:24;31.08;;;24.80;;
39864;SDS011;25538;48.392;9.976;2022-12-15T03:57:53;28.70;;;22.98;;
39864;SDS011;25538;48.392;9.976;2022-12-15T04:00:19;32.00;;;24.55;;
39864;SDS011;25538;48.392;9.976;2022-12-15T04:02:46;33.67;;;24.60;;
39864;SDS011;25538;48.392;9.976;2022-12-15T04:05:22;30.48;;;22.75;;
39864;SDS011;25538;48.392;9.976;2022-12-15T04:07:52;31.80;;;24.58;;
39864;SDS011;25538;48.392;9.976;2022-12-15T04:10:19;27.88;;;24.27;;
39864;SDS011;25538;48.392;9.976;2022-12-15T04:12:45;31.33;;;24.15;;
39864;SDS011;25538;48.392;9.976;2022-12-15T04:15:11;32.50;;;23.97;;
39864;SDS011;25538;48.392;9.976;2022-12-15T04:17:38;28.85;;;23.98;;
39864;SDS011;25538;48.392;9.976;2022-12-15T04:20:04;28.33;;;22.35;;
39864;SDS011;25538;48.392;9.976;2022-12-15T04:22:35;30.20;;;23.67;;
39864;SDS011;25538;48.392;9.976;2022-12-15T04:25:01;28.98;;;23.55;;
39864;SDS011;25538;48.392;9.976;2022-12-15T04:27:45;29.05;;;23.52;;
39864;SDS011;25538;48.392;9.976;2022-12-15T04:30:30;31.42;;;23.77;;
39864;SDS011;25538;48.392;9.976;2022-12-15T04:33:15;32.60;;;25.02;;
39864;SDS011;25538;48.392;9.976;2022-12-15T04:35:59;33.00;;;25.80;;
39864;SDS011;25538;48.392;9.976;2022-12-15T04:38:44;30.40;;;24.52;;
39864;SDS011;25538;48.392;9.976;2022-12-15T04:41:29;33.35;;;23.75;;
39864;SDS011;25538;48.392;9.976;2022-12-15T04:44:15;31.73;;;25.38;;
39864;SDS011;25538;48.392;9.976;2022-12-15T04:47:00;30.80;;;23.67;;
39864;SDS011;25538;48.392;9.976;2022-12-15T04:49:44;28.23;;;22.05;;
39864;SDS011;25538;48.392;9.976;2022-12-15T04:52:29;30.20;;;22.92;;
39864;SDS011;25538;48.392;9.976;2022-12-15T04:55:13;29.92;;;23.00;;
39864;SDS011;25538;48.392;9.976;2022-12-15T04:58:02;30.70;;;26.33;;
39864;SDS011;25538;48.392;9.976;2022-12-15T05:00:47;35.85;;;26.77;;
39864;SDS011;25538;48.392;9.976;2022-12-15T05:03:32;39.22;;;26.77;;
39864;SDS011;25538;48.392;9.976;2022-12-15T05:06:16;36.60;;;27.38;;
39864;SDS011;25538;48.392;9.976;2022-12-15T05:09:01;33.88;;;26.08;;
39864;SDS011;25538;48.392;9.976;2022-12-15T05:11:45;35.55;;;27.58;;
39864;SDS011;25538;48.392;9.976;2022-12-15T05:14:29;38.45;;;27.38;;
39864;SDS011;25538;48.392;9.976;2022-12-15T05:17:14;34.70;;;25.52;;
39864;SDS011;25538;48.392;9.976;2022-12-15T05:19:58;30.75;;;24.40;;
39864;SDS011;25538;48.392;9.976;2022-12-15T05:22:42;36.22;;;26.70;;
39864;SDS011;25538;48.392;9.976;2022-12-15T05:25:27;36.97;;;26.85;;
39864;SDS011;25538;48.392;9.976;2022-12-15T05:28:11;35.92;;;26.70;;
39864;SDS011;25538;48.392;9.976;2022-12-15T05:30:55;38.00;;;27.50;;
39864;SDS011;25538;48.392;9.976;2022-12-15T05:33:40;37.20;;;28.60;;
39864;SDS011;25538;48.392;9.976;2022-12-15T05:36:06;34.87;;;26.47;;
39864;SDS011;25538;48.392;9.976;2022-12-15T05:38:32;39.70;;;27.58;;
39864;SDS011;25538;48.392;9.976;2022-12-15T05:40:58;41.37;;;29.63;;
39864;SDS011;25538;48.392;9.976;2022-12-15T05:43:24;37.35;;;28.33;;
39864;SDS011;25538;48.392;9.976;2022-12-15T05:45:50;42.80;;;30.58;;
39864;SDS011;25538;48.392;9.976;2022-12-15T05:48:16;39.70;;;30.40;;
39864;SDS011;25538;48.392;9.976;2022-12-15T05:50:42;43.07;;;29.97;;
39864;SDS011;25538;48.392;9.976;2022-12-15T05:53:08;40.50;;;28.93;;
39864;SDS011;25538;48.392;9.976;2022-12-15T05:55:34;42.27;;;30.10;;
39864;SDS011;25538;48.392;9.976;2022-12-15T05:58:00;40.23;;;30.00;;
39864;SDS011;25538;48.392;9.976;2022-12-15T06:00:26;42.38;;;30.17;;
39864;SDS011;25538;48.392;9.976;2022-12-15T06:02:52;44.10;;;30.20;;
39864;SDS011;25538;48.392;9.976;2022-12-15T06:05:19;45.50;;;31.25;;
39864;SDS011;25538;48.392;9.976;2022-12-15T06:07:44;41.40;;;29.77;;
39864;SDS011;25538;48.392;9.976;2022-12-15T06:10:10;43.50;;;30.63;;
39864;SDS011;25538;48.392;9.976;2022-12-15T06:12:36;42.10;;;29.53;;
39864;SDS011;25538;48.392;9.976;2022-12-15T06:15:02;43.73;;;30.97;;
39864;SDS011;25538;48.392;9.976;2022-12-15T06:17:28;45.40;;;32.65;;
39864;SDS011;25538;48.392;9.976;2022-12-15T06:19:54;42.27;;;29.90;;
39864;SDS011;25538;48.392;9.976;2022-12-15T06:22:20;49.00;;;31.93;;
39864;SDS011;25538;48.392;9.976;2022-12-15T06:24:46;44.70;;;31.30;;
39864;SDS011;25538;48.392;9.976;2022-12-15T06:27:12;46.97;;;30.63;;
39864;SDS011;25538;48.392;9.976;2022-12-15T06:29:38;43.07;;;29.67;;
39864;SDS011;25538;48.392;9.976;2022-12-15T06:32:04;44.33;;;30.77;;
39864;SDS011;25538;48.392;9.976;2022-12-15T06:34:29;43.40;;;31.30;;
39864;SDS011;25538;48.392;9.976;2022-12-15T06:36:55;43.80;;;32.10;;
39864;SDS011;25538;48.392;9.976;2022-12-15T06:39:21;45.77;;;32.43;;
39864;SDS011;25538;48.392;9.976;2022-12-15T06:41:47;44.33;;;31.10;;
39864;SDS011;25538;48.392;9.976;2022-12-15T06:44:13;45.73;;;32.40;;
39864;SDS011;25538;48.392;9.976;2022-12-15T06:46:40;51.40;;;31.88;;
39864;SDS011;25538;48.392;9.976;2022-12-15T06:49:07;46.15;;;32.72;;
39864;SDS011;25538;48.392;9.976;2022-12-15T06:51:33;47.88;;;31.85;;
39864;SDS011;25538;48.392;9.976;2022-12-15T06:53:59;42.85;;;31.33;;
39864;SDS011;25538;48.392;9.976;2022-12-15T06:56:27;43.67;;;30.98;;
39864;SDS011;25538;48.392;9.976;2022-12-15T06:58:55;45.67;;;32.15;;
39864;SDS011;25538;48.392;9.976;2022-12-15T07:01:23;46.47;;;33.38;;
39864;SDS011;25538;48.392;9.976;2022-12-15T07:03:50;41.38;;;31.85;;
39864;SDS011;25538;48.392;9.976;2022-12-15T07:06:17;45.28;;;32.45;;
39864;SDS011;25538;48.392;9.976;2022-12-15T07:08:43;50.40;;;32.92;;
39864;SDS011;25538;48.392;9.976;2022-12-15T07:11:18;49.28;;;32.55;;
39864;SDS011;25538;48.392;9.976;2022-12-15T07:13:47;52.05;;;33.03;;
39864;SDS011;25538;48.392;9.976;2022-12-15T07:16:15;54.83;;;33.70;;
39864;SDS011;25538;48.392;9.976;2022-12-15T07:18:41;39.45;;;29.13;;
39864;SDS011;25538;48.392;9.976;2022-12-15T07:21:07;41.20;;;30.37;;
39864;SDS011;25538;48.392;9.976;2022-12-15T07:23:34;49.13;;;31.25;;
39864;SDS011;25538;48.392;9.976;2022-12-15T07:26:02;49.00;;;35.17;;
39864;SDS011;25538;48.392;9.976;2022-12-15T07:28:29;46.88;;;31.75;;
39864;SDS011;25538;48.392;9.976;2022-12-15T07:31:00;44.60;;;31.05;;
39864;SDS011;25538;48.392;9.976;2022-12-15T07:33:26;44.45;;;31.13;;
39864;SDS011;25538;48.392;9.976;2022-12-15T07:35:53;50.50;;;33.85;;
39864;SDS011;25538;48.392;9.976;2022-12-15T07:38:19;49.63;;;34.05;;
39864;SDS011;25538;48.392;9.976;2022-12-15T07:40:45;47.47;;;32.75;;
39864;SDS011;25538;48.392;9.976;2022-12-15T07:43:11;48.17;;;33.13;;
39864;SDS011;25538;48.392;9.976;2022-12-15T07:45:37;45.20;;;32.93;;
39864;SDS011;25538;48.392;9.976;2022-12-15T07:48:03;48.30;;;33.43;;
39864;SDS011;25538;48.392;9.976;2022-12-15T07:50:29;49.22;;;32.92;;
39864;SDS011;25538;48.392;9.976;2022-12-15T07:52:55;49.60;;;32.50;;
39864;SDS011;25538;48.392;9.976;2022-12-15T07:55:21;43.10;;;31.52;;
39864;SDS011;25538;48.392;9.976;2022-12-15T07:57:47;45.22;;;31.15;;
39864;SDS011;25538;48.392;9.976;2022-12-15T08:00:13;49.40;;;31.40;;
39864;SDS011;25538;48.392;9.976;2022-12-15T08:02:40;42.67;;;30.80;;
39864;SDS011;25538;48.392;9.976;2022-12-15T08:05:07;45.63;;;30.98;;
39864;SDS011;25538;48.392;9.976;2022-12-15T08:07:34;47.85;;;31.95;;
39864;SDS011;25538;48.392;9.976;2022-12-15T08:10:00;53.20;;;34.57;;
39864;SDS011;25538;48.392;9.976;2022-12-15T08:12:26;50.90;;;32.10;;
39864;SDS011;25538;48.392;9.976;2022-12-15T08:14:53;47.75;;;33.88;;
39864;SDS011;25538;48.392;9.976;2022-12-15T08:17:19;51.28;;;35.67;;
39864;SDS011;25538;48.392;9.976;2022-12-15T08:19:45;43.90;;;31.90;;
39864;SDS011;25538;48.392;9.976;2022-12-15T08:22:11;50.70;;;32.20;;
39864;SDS011;25538;48.392;9.976;2022-12-15T08:24:39;47.10;;;31.20;;
39864;SDS011;25538;48.392;9.976;2022-12-15T08:27:05;49.97;;;32.75;;
39864;SDS011;25538;48.392;9.976;2022-12-15T08:29:32;48.47;;;34.55;;
39864;SDS011;25538;48.392;9.976;2022-12-15T08:31:59;48.17;;;32.78;;
39864;SDS011;25538;48.392;9.976;2022-12-15T08:34:25;42.40;;;31.30;;
39864;SDS011;25538;48.392;9.976;2022-12-15T08:36:51;48.50;;;32.83;;
39864;SDS011;25538;48.392;9.976;2022-12-15T08:39:18;45.53;;;33.15;;
39864;SDS011;25538;48.392;9.976;2022-12-15T08:41:44;41.25;;;31.90;;
39864;SDS011;25538;48.392;9.976;2022-12-15T08:44:10;44.38;;;31.75;;
39864;SDS011;25538;48.392;9.976;2022-12-15T08:46:36;40.05;;;31.25;;
39864;SDS011;25538;48.392;9.976;2022-12-15T08:49:02;41.80;;;29.73;;
39864;SDS011;25538;48.392;9.976;2022-12-15T08:51:29;46.70;;;32.45;;
39864;SDS011;25538;48.392;9.976;2022-12-15T08:53:56;43.38;;;32.72;;
39864;SDS011;25538;48.392;9.976;2022-12-15T08:56:24;47.35;;;31.65;;
39864;SDS011;25538;48.392;9.976;2022-12-15T08:58:54;44.95;;;31.92;;
39864;SDS011;25538;48.392;9.976;2022-12-15T09:01:26;43.92;;;30.45;;
39864;SDS011;25538;48.392;9.976;2022-12-15T09:03:53;43.60;;;32.47;;
39864;SDS011;25538;48.392;9.976;2022-12-15T09:06:21;47.00;;;31.90;;
39864;SDS011;25538;48.392;9.976;2022-12-15T09:08:52;48.75;;;33.05;;
39864;SDS011;25538;48.392;9.976;2022-12-15T09:11:23;44.78;;;32.28;;
39864;SDS011;25538;48.392;9.976;2022-12-15T09:13:50;43.22;;;31.85;;
39864;SDS011;25538;48.392;9.976;2022-12-15T09:16:16;42.92;;;31.90;;
39864;SDS011;25538;48.392;9.976;2022-12-15T09:18:44;41.03;;;30.13;;
39864;SDS011;25538;48.392;9.976;2022-12-15T09:21:13;41.83;;;30.00;;
39864;SDS011;25538;48.392;9.976;2022-12-15T09:23:40;43.17;;;31.45;;
39864;SDS011;25538;48.392;9.976;2022-12-15T09:26:09;43.10;;;30.50;;
39864;SDS011;25538;48.392;9.976;2022-12-15T09:28:39;43.55;;;31.70;;
39864;SDS011;25538;48.392;9.976;2022-12-15T09:33:32;46.63;;;31.75;;
39864;SDS011;25538;48.392;9.976;2022-12-15T09:35:58;44.08;;;33.08;;
39864;SDS011;25538;48.392;9.976;2022-12-15T09:38:24;43.58;;;33.28;;
39864;SDS011;25538;48.392;9.976;2022-12-15T09:40:50;42.42;;;31.63;;
39864;SDS011;25538;48.392;9.976;2022-12-15T09:43:20;47.85;;;31.70;;
39864;SDS011;25538;48.392;9.976;2022-12-15T09:45:53;50.00;;;32.28;;
39864;SDS011;25538;48.392;9.976;2022-12-15T09:48:28;51.53;;;33.60;;
39864;SDS011;25538;48.392;9.976;2022-12-15T09:51:01;42.53;;;31.52;;
39864;SDS011;25538;48.392;9.976;2022-12-15T09:53:29;45.17;;;32.53;;
39864;SDS011;25538;48.392;9.976;2022-12-15T09:55:58;43.88;;;31.77;;
39864;SDS011;25538;48.392;9.976;2022-12-15T10:09:21;41.42;;;30.13;;
39864;SDS011;25538;48.392;9.976;2022-12-15T10:11:56;49.65;;;33.70;;
39864;SDS011;25538;48.392;9.976;2022-12-15T10:19:45;49.47;;;34.72;;
39864;SDS011;25538;48.392;9.976;2022-12-15T10:22:23;45.08;;;32.70;;
39864;SDS011;25538;48.392;9.976;2022-12-15T10:24:52;43.42;;;31.15;;
39864;SDS011;25538;48.392;9.976;2022-12-15T10:30:18;47.50;;;33.35;;
39864;SDS011;25538;48.392;9.976;2022-12-15T10:32:57;48.55;;;33.20;;
39864;SDS011;25538;48.392;9.976;2022-12-15T10:35:45;47.00;;;33.50;;
39864;SDS011;25538;48.392;9.976;2022-12-15T10:38:28;41.70;;;32.45;;
39864;SDS011;25538;48.392;9.976;2022-12-15T10:41:07;47.88;;;33.45;;
39864;SDS011;25538;48.392;9.976;2022-12-15T10:43:40;49.65;;;33.95;;
39864;SDS011;25538;48.392;9.976;2022-12-15T10:46:18;47.72;;;35.15;;
39864;SDS011;25538;48.392;9.976;2022-12-15T10:49:31;48.97;;;34.70;;
39864;SDS011;25538;48.392;9.976;2022-12-15T10:51:52;41.42;;;31.23;;
39864;SDS011;25538;48.392;9.976;2022-12-15T10:54:21;45.13;;;32.53;;
39864;SDS011;25538;48.392;9.976;2022-12-15T10:56:55;47.70;;;33.80;;
39864;SDS011;25538;48.392;9.976;2022-12-15T11:04:59;43.38;;;31.98;;
39864;SDS011;25538;48.392;9.976;2022-12-15T11:07:33;46.55;;;33.53;;
39864;SDS011;25538;48.392;9.976;2022-12-15T11:10:02;47.30;;;33.72;;
39864;SDS011;25538;48.392;9.976;2022-12-15T11:13:14;46.85;;;32.35;;
39864;SDS011;25538;48.392;9.976;2022-12-15T11:15:49;45.35;;;33.60;;
39864;SDS011;25538;48.392;9.976;2022-12-15T11:18:20;51.95;;;33.53;;
39864;SDS011;25538;48.392;9.976;2022-12-15T11:20:55;45.30;;;32.47;;
39864;SDS011;25538;48.392;9.976;2022-12-15T11:24:07;51.80;;;35.75;;
39864;SDS011;25538;48.392;9.976;2022-12-15T11:26:42;46.10;;;31.60;;
39864;SDS011;25538;48.392;9.976;2022-12-15T11:29:20;48.25;;;32.92;;
39864;SDS011;25538;48.392;9.976;2022-12-15T11:31:49;44.85;;;33.63;;
39864;SDS011;25538;48.392;9.976;2022-12-15T11:34:17;45.60;;;32.33;;
39864;SDS011;25538;48.392;9.976;2022-12-15T11:42:07;45.88;;;32.28;;
39864;SDS011;25538;48.392;9.976;2022-12-15T11:47:59;49.45;;;32.67;;
39864;SDS011;25538;48.392;9.976;2022-12-15T11:50:52;45.92;;;33.45;;
39864;SDS011;25538;48.392;9.976;2022-12-15T11:56:41;49.20;;;34.33;;
39864;SDS011;25538;48.392;9.976;2022-12-15T12:07:20;47.22;;;33.00;;
39864;SDS011;25538;48.392;9.976;2022-12-15T12:12:51;48.08;;;32.97;;
39864;SDS011;25538;48.392;9.976;2022-12-15T12:15:25;47.75;;;33.10;;
39864;SDS011;25538;48.392;9.976;2022-12-15T12:18:18;42.65;;;29.20;;
39864;SDS011;25538;48.392;9.976;2022-12-15T12:20:57;45.45;;;33.00;;
39864;SDS011;25538;48.392;9.976;2022-12-15T12:23:30;44.90;;;31.50;;
39864;SDS011;25538;48.392;9.976;2022-12-15T12:35:00;46.40;;;33.35;;
39864;SDS011;25538;48.392;9.976;2022-12-15T12:38:01;42.80;;;30.55;;
39864;SDS011;25538;48.392;9.976;2022-12-15T12:40:25;45.25;;;33.58;;
39864;SDS011;25538;48.392;9.976;2022-12-15T12:43:06;52.70;;;31.45;;
39864;SDS011;25538;48.392;9.976;2022-12-15T12:48:30;51.47;;;32.60;;
39864;SDS011;25538;48.392;9.976;2022-12-15T12:51:47;50.90;;;33.28;;
39864;SDS011;25538;48.392;9.976;2022-12-15T12:53:52;48.30;;;33.78;;
39864;SDS011;25538;48.392;9.976;2022-12-15T12:56:35;44.58;;;33.15;;
39864;SDS011;25538;48.392;9.976;2022-12-15T13:02:40;47.70;;;34.15;;
39864;SDS011;25538;48.392;9.976;2022-12-15T13:04:41;49.90;;;34.97;;
39864;SDS011;25538;48.392;9.976;2022-12-15T13:15:09;50.13;;;35.60;;
39864;SDS011;25538;48.392;9.976;2022-12-15T13:17:43;56.38;;;35.10;;
39864;SDS011;25538;48.392;9.976;2022-12-15T13:20:25;52.00;;;35.92;;
39864;SDS011;25538;48.392;9.976;2022-12-15T13:22:53;53.70;;;36.65;;
39864;SDS011;25538;48.392;9.976;2022-12-15T13:25:40;49.80;;;35.35;;
39864;SDS011;25538;48.392;9.976;2022-12-15T13:39:03;52.40;;;35.22;;
39864;SDS011;25538;48.392;9.976;2022-12-15T13:41:42;49.90;;;35.10;;
39864;SDS011;25538;48.392;9.976;2022-12-15T13:44:17;49.97;;;34.33;;
39864;SDS011;25538;48.392;9.976;2022-12-15T13:46:45;56.47;;;36.25;;
39864;SDS011;25538;48.392;9.976;2022-12-15T13:49:25;53.90;;;36.47;;
39864;SDS011;25538;48.392;9.976;2022-12-15T13:52:02;51.53;;;35.58;;
39864;SDS011;25538;48.392;9.976;2022-12-15T13:54:50;52.25;;;35.50;;
39864;SDS011;25538;48.392;9.976;2022-12-15T13:57:20;50.13;;;35.22;;
39864;SDS011;25538;48.392;9.976;2022-12-15T13:59:49;51.58;;;35.33;;
39864;SDS011;25538;48.392;9.976;2022-12-15T14:02:24;59.53;;;38.00;;
39864;SDS011;25538;48.392;9.976;2022-12-15T14:07:48;54.40;;;37.30;;
39864;SDS011;25538;48.392;9.976;2022-12-15T14:10:25;54.50;;;37.45;;
39864;SDS011;25538;48.392;9.976;2022-12-15T14:13:36;55.30;;;37.22;;
39864;SDS011;25538;48.392;9.976;2022-12-15T14:16:03;58.13;;;36.58;;
39864;SDS011;25538;48.392;9.976;2022-12-15T14:18:41;59.60;;;38.42;;
39864;SDS011;25538;48.392;9.976;2022-12-15T14:21:21;58.75;;;37.33;;
39864;SDS011;25538;48.392;9.976;2022-12-15T14:23:48;62.80;;;38.53;;
39864;SDS011;25538;48.392;9.976;2022-12-15T14:26:15;59.40;;;37.10;;
39864;SDS011;25538;48.392;9.976;2022-12-15T14:28:42;57.90;;;36.47;;
39864;SDS011;25538;48.392;9.976;2022-12-15T14:33:45;57.58;;;39.53;;
39864;SDS011;25538;48.392;9.976;2022-12-15T14:36:13;57.97;;;39.63;;
39864;SDS011;25538;48.392;9.976;2022-12-15T14:38:49;57.45;;;37.88;;
39864;SDS011;25538;48.392;9.976;2022-12-15T14:41:19;58.83;;;36.80;;
39864;SDS011;25538;48.392;9.976;2022-12-15T14:43:48;61.05;;;39.55;;
39864;SDS011;25538;48.392;9.976;2022-12-15T14:46:21;60.65;;;40.50;;
39864;SDS011;25538;48.392;9.976;2022-12-15T14:48:55;62.75;;;40.92;;
39864;SDS011;25538;48.392;9.976;2022-12-15T14:51:24;63.58;;;41.65;;
39864;SDS011;25538;48.392;9.976;2022-12-15T14:53:53;62.35;;;40.33;;
39864;SDS011;25538;48.392;9.976;2022-12-15T14:56:21;64.35;;;38.25;;
39864;SDS011;25538;48.392;9.976;2022-12-15T15:03:58;60.90;;;38.25;;
39864;SDS011;25538;48.392;9.976;2022-12-15T15:06:36;60.67;;;39.90;;
39864;SDS011;25538;48.392;9.976;2022-12-15T15:09:15;54.67;;;36.33;;
39864;SDS011;25538;48.392;9.976;2022-12-15T15:11:59;65.63;;;41.58;;
39864;SDS011;25538;48.392;9.976;2022-12-15T15:14:30;55.17;;;35.83;;
39864;SDS011;25538;48.392;9.976;2022-12-15T15:17:03;66.47;;;40.63;;
39864;SDS011;25538;48.392;9.976;2022-12-15T15:19:49;59.60;;;39.25;;
39864;SDS011;25538;48.392;9.976;2022-12-15T15:22:24;63.88;;;39.70;;
39864;SDS011;25538;48.392;9.976;2022-12-15T15:24:55;59.88;;;38.15;;
39864;SDS011;25538;48.392;9.976;2022-12-15T15:27:31;58.40;;;38.85;;
39864;SDS011;25538;48.392;9.976;2022-12-15T15:30:11;56.58;;;38.15;;
39864;SDS011;25538;48.392;9.976;2022-12-15T15:32:51;57.25;;;37.78;;
39864;SDS011;25538;48.392;9.976;2022-12-15T15:35:22;59.55;;;39.20;;
39864;SDS011;25538;48.392;9.976;2022-12-15T15:37:51;52.22;;;38.13;;
39864;SDS011;25538;48.392;9.976;2022-12-15T15:40:18;57.53;;;38.42;;
39864;SDS011;25538;48.392;9.976;2022-12-15T15:42:44;55.67;;;37.53;;
39864;SDS011;25538;48.392;9.976;2022-12-15T15:45:11;51.85;;;35.60;;
39864;SDS011;25538;48.392;9.976;2022-12-15T15:47:38;62.20;;;39.75;;
39864;SDS011;25538;48.392;9.976;2022-12-15T15:50:04;53.72;;;37.08;;
39864;SDS011;25538;48.392;9.976;2022-12-15T15:52:31;58.83;;;37.97;;
39864;SDS011;25538;48.392;9.976;2022-12-15T15:54:58;60.55;;;39.90;;
39864;SDS011;25538;48.392;9.976;2022-12-15T15:57:24;58.80;;;35.97;;
39864;SDS011;25538;48.392;9.976;2022-12-15T15:59:50;54.20;;;38.10;;
39864;SDS011;25538;48.392;9.976;2022-12-15T16:02:16;66.17;;;40.27;;
39864;SDS011;25538;48.392;9.976;2022-12-15T16:04:42;59.53;;;38.20;;
39864;SDS011;25538;48.392;9.976;2022-12-15T16:07:41;55.78;;;37.05;;
39864;SDS011;25538;48.392;9.976;2022-12-15T16:10:00;61.45;;;39.17;;
39864;SDS011;25538;48.392;9.976;2022-12-15T16:12:47;59.70;;;38.40;;
39864;SDS011;25538;48.392;9.976;2022-12-15T16:15:17;49.80;;;34.45;;
39864;SDS011;25538;48.392;9.976;2022-12-15T16:17:45;54.15;;;37.50;;
39864;SDS011;25538;48.392;9.976;2022-12-15T16:20:12;54.20;;;34.67;;
39864;SDS011;25538;48.392;9.976;2022-12-15T16:22:40;52.40;;;34.70;;
39864;SDS011;25538;48.392;9.976;2022-12-15T16:25:15;49.58;;;33.28;;
39864;SDS011;25538;48.392;9.976;2022-12-15T16:27:45;54.03;;;35.67;;
39864;SDS011;25538;48.392;9.976;2022-12-15T16:30:15;52.50;;;34.17;;
39864;SDS011;25538;48.392;9.976;2022-12-15T16:32:42;55.75;;;36.33;;
39864;SDS011;25538;48.392;9.976;2022-12-15T16:35:08;52.00;;;34.03;;
39864;SDS011;25538;48.392;9.976;2022-12-15T16:37:35;52.40;;;33.97;;
39864;SDS011;25538;48.392;9.976;2022-12-15T16:40:02;49.15;;;34.22;;
39864;SDS011;25538;48.392;9.976;2022-12-15T16:42:37;45.60;;;32.38;;
39864;SDS011;25538;48.392;9.976;2022-12-15T16:45:13;49.00;;;33.57;;
39864;SDS011;25538;48.392;9.976;2022-12-15T16:47:40;48.17;;;31.17;;
39864;SDS011;25538;48.392;9.976;2022-12-15T16:50:07;48.27;;;33.80;;
39864;SDS011;25538;48.392;9.976;2022-12-15T16:52:36;47.00;;;31.85;;
39864;SDS011;25538;48.392;9.976;2022-12-15T16:55:02;46.83;;;32.00;;
39864;SDS011;25538;48.392;9.976;2022-12-15T16:57:28;48.15;;;32.53;;
39864;SDS011;25538;48.392;9.976;2022-12-15T16:59:54;45.53;;;32.47;;
39864;SDS011;25538;48.392;9.976;2022-12-15T17:02:27;49.10;;;32.97;;
39864;SDS011;25538;48.392;9.976;2022-12-15T17:04:53;42.58;;;30.42;;
39864;SDS011;25538;48.392;9.976;2022-12-15T17:07:20;45.15;;;30.40;;